LWSK/SKP METAR and TAF weather

Enter ICAO airport designator
Station Type Date Time Source
LWSK METAR 2019/12/08 11:30 UTC NOAA

LWSK 081130Z 11001KT 6000 FEW010 11/08 Q1021 NOSIG


Station Type Date Time Source
LWSK Decoded METAR 2019/12/08 11:30 UTC NOAA

Skopje-Petrovec, Macedonia, The Republic of (LWSK) 41-58N 021-39E 239M
Dec 08, 2019 - 06:30 AM EST / 2019.12.08 1130 UTC
Wind: from the ESE (110 degrees) at 1 MPH (1 KT):0
Visibility: 3 mile(s):0
Sky conditions: mostly clear
Temperature: 51 F (11 C)
Dew Point: 46 F (8 C)
Relative Humidity: 81%
Pressure (altimeter): 30.15 in. Hg (1021 hPa)
ob: LWSK 081130Z 11001KT 6000 FEW010 11/08 Q1021 NOSIG
cycle: 11

Station Type Date Time Source
LWSK TAF 2019/12/08 12:33 UTC NOAA

TAF TAF LWSK 081130Z 0812/0912 VRB02KT 7000 FEW010
TEMPO 0903/0908 3000 BR

Example: see airport list